Time;durP1;ratioP1;P1;durP2;ratioP2;P2;SDS_P1;SDS_P2;PMS_P1;PMS_P2;Temp;Humidity;BMP_temperature;BMP_pressure;BME280_temperature;BME280_humidity;BME280_pressure;Samples;Min_cycle;Max_cycle;Signal;HPM_P1;HPM_P2
2022/01/29 00:00:49;;;;;;;11.10;7.50;;;3.00;99.90;;;;;;5066521;28;20522;-64
2022/01/29 00:03:16;;;;;;;11.80;8.10;;;3.00;99.90;;;;;;5066493;28;20578;-64
2022/01/29 00:05:43;;;;;;;11.10;8.33;;;3.00;99.90;;;;;;5066653;28;20471;-64
2022/01/29 00:08:10;;;;;;;14.20;8.93;;;3.10;99.90;;;;;;5066227;28;20759;-64
2022/01/29 00:10:36;;;;;;;11.87;8.10;;;3.10;99.90;;;;;;5066356;28;20531;-64
2022/01/29 00:13:05;;;;;;;10.87;7.80;;;3.20;99.90;;;;;;5067461;28;20460;-64
2022/01/29 00:15:32;;;;;;;13.60;7.80;;;3.30;99.90;;;;;;5067244;28;20500;-64
2022/01/29 00:17:58;;;;;;;14.03;8.40;;;3.30;99.90;;;;;;5067322;28;20443;-64
2022/01/29 00:20:25;;;;;;;11.00;8.07;;;3.30;99.90;;;;;;5066461;28;20451;-64
2022/01/29 00:22:52;;;;;;;12.23;7.00;;;3.40;99.90;;;;;;5065544;28;20575;-65
2022/01/29 00:25:19;;;;;;;10.10;7.77;;;3.30;99.90;;;;;;5066600;28;20447;-64
2022/01/29 00:27:46;;;;;;;10.90;8.43;;;3.20;99.90;;;;;;5064598;28;20483;-64
2022/01/29 00:30:17;;;;;;;13.17;8.40;;;3.20;99.90;;;;;;5065473;28;20456;-64
2022/01/29 00:32:44;;;;;;;16.70;9.47;;;3.10;99.90;;;;;;5065654;28;20543;-64
2022/01/29 00:35:12;;;;;;;10.43;8.80;;;3.10;99.90;;;;;;5065355;28;20524;-64
2022/01/29 00:37:39;;;;;;;12.53;9.40;;;3.00;99.90;;;;;;5066239;28;20435;-64
2022/01/29 00:40:07;;;;;;;14.40;9.10;;;3.10;99.90;;;;;;5064697;28;20447;-64
2022/01/29 00:42:34;;;;;;;11.97;8.30;;;3.20;99.90;;;;;;5067595;28;20858;-64
2022/01/29 00:45:01;;;;;;;11.00;8.10;;;3.20;99.90;;;;;;5068774;28;20942;-65
2022/01/29 00:47:29;;;;;;;10.73;8.30;;;3.20;99.90;;;;;;5068430;28;20482;-64
2022/01/29 00:49:56;;;;;;;12.27;7.73;;;3.20;99.90;;;;;;5068595;28;20546;-65
2022/01/29 00:52:22;;;;;;;11.73;8.83;;;3.10;99.90;;;;;;5070342;28;20867;-65
2022/01/29 00:54:49;;;;;;;19.70;9.00;;;3.10;99.90;;;;;;5070365;28;20444;-66
2022/01/29 00:57:16;;;;;;;13.00;8.60;;;3.10;99.90;;;;;;5070304;28;20542;-65
2022/01/29 00:59:43;;;;;;;13.13;9.57;;;3.00;99.90;;;;;;5069776;28;20942;-65
2022/01/29 01:02:11;;;;;;;12.03;8.77;;;3.10;99.90;;;;;;5070230;28;20487;-65
2022/01/29 01:04:39;;;;;;;14.30;9.47;;;3.10;99.90;;;;;;5070011;28;20458;-64
2022/01/29 01:07:07;;;;;;;12.47;9.17;;;3.20;99.90;;;;;;5070419;28;20505;-65
2022/01/29 01:09:34;;;;;;;12.97;9.40;;;3.20;99.90;;;;;;5069681;28;20435;-65
2022/01/29 01:12:01;;;;;;;14.30;9.50;;;3.20;99.90;;;;;;5070227;28;20471;-66
2022/01/29 01:14:28;;;;;;;12.80;8.93;;;3.20;99.90;;;;;;5069924;28;20451;-64
2022/01/29 01:16:55;;;;;;;12.70;8.70;;;3.20;99.90;;;;;;5069927;28;20453;-65
2022/01/29 01:19:25;;;;;;;17.63;9.30;;;3.20;99.90;;;;;;5069823;28;20948;-64
2022/01/29 01:21:54;;;;;;;11.30;8.43;;;3.20;99.90;;;;;;5069935;28;20499;-65
2022/01/29 01:24:21;;;;;;;10.30;8.90;;;3.20;99.90;;;;;;5069791;28;20450;-65
2022/01/29 01:26:48;;;;;;;12.87;9.03;;;3.10;99.90;;;;;;5069839;28;20454;-65
2022/01/29 01:29:15;;;;;;;14.37;10.30;;;3.10;99.90;;;;;;5069449;28;20443;-65
2022/01/29 01:31:44;;;;;;;11.40;9.33;;;3.20;99.90;;;;;;5069963;28;20435;-65
2022/01/29 01:34:11;;;;;;;14.00;9.70;;;3.20;99.90;;;;;;5070053;28;20443;-65
2022/01/29 01:36:40;;;;;;;14.00;9.70;;;3.20;99.90;;;;;;5069576;28;20444;-65
2022/01/29 01:39:11;;;;;;;11.47;9.10;;;3.10;99.90;;;;;;5069467;28;20435;-65
2022/01/29 01:41:41;;;;;;;11.33;8.80;;;3.00;99.90;;;;;;5069324;28;20900;-65
2022/01/29 01:44:11;;;;;;;15.53;10.03;;;3.00;99.90;;;;;;5069343;28;20836;-65
2022/01/29 01:46:38;;;;;;;13.60;9.47;;;3.00;99.90;;;;;;5069567;28;20454;-65
2022/01/29 01:49:05;;;;;;;15.40;10.33;;;3.00;99.90;;;;;;5069479;28;20530;-65
2022/01/29 01:51:32;;;;;;;15.00;11.17;;;3.00;99.90;;;;;;5069298;28;20838;-65
2022/01/29 01:53:59;;;;;;;14.53;10.53;;;3.00;99.90;;;;;;5068859;28;20490;-65
2022/01/29 01:56:27;;;;;;;14.40;11.03;;;3.00;99.90;;;;;;5069153;28;20531;-64
2022/01/29 01:58:57;;;;;;;14.90;10.90;;;3.00;99.90;;;;;;5069278;28;20436;-65
2022/01/29 02:01:23;;;;;;;12.77;10.50;;;3.10;99.90;;;;;;5069162;28;20440;-65
2022/01/29 02:03:51;;;;;;;12.50;10.13;;;3.10;99.90;;;;;;5069110;28;21115;-65
2022/01/29 02:06:19;;;;;;;14.53;10.43;;;3.00;99.90;;;;;;5069008;28;20458;-65
2022/01/29 02:08:46;;;;;;;18.93;11.63;;;3.00;99.90;;;;;;5068902;28;20453;-65
2022/01/29 02:11:13;;;;;;;14.57;11.17;;;2.90;99.90;;;;;;5068351;28;20959;-65
2022/01/29 02:13:41;;;;;;;15.27;10.13;;;3.00;99.90;;;;;;5069470;28;20642;-65
2022/01/29 02:16:08;;;;;;;13.70;10.17;;;3.00;99.90;;;;;;5069475;28;20447;-65
2022/01/29 02:18:35;;;;;;;12.73;10.43;;;2.90;99.90;;;;;;5069444;28;20970;-65
2022/01/29 02:21:03;;;;;;;12.07;10.30;;;2.90;99.90;;;;;;5068856;28;20432;-65
2022/01/29 02:23:31;;;;;;;16.63;10.80;;;2.80;99.90;;;;;;5068927;28;20494;-65
2022/01/29 02:25:58;;;;;;;16.80;11.67;;;2.80;99.90;;;;;;5069114;28;20448;-65
2022/01/29 02:28:25;;;;;;;12.40;9.90;;;2.80;99.90;;;;;;5069195;28;20436;-65
2022/01/29 02:30:56;;;;;;;13.90;11.13;;;2.80;99.90;;;;;;5068536;28;20439;-65
2022/01/29 02:33:24;;;;;;;13.10;10.03;;;2.70;99.90;;;;;;5069131;28;20459;-65
2022/01/29 02:35:53;;;;;;;15.37;10.53;;;2.70;99.90;;;;;;5068891;28;20443;-65
2022/01/29 02:38:22;;;;;;;14.17;10.50;;;2.70;99.90;;;;;;5068803;28;20796;-65
2022/01/29 02:40:54;;;;;;;13.37;9.73;;;2.60;99.90;;;;;;5068797;28;20444;-66
2022/01/29 02:43:27;;;;;;;14.00;10.00;;;2.50;99.90;;;;;;5068765;28;20589;-65
2022/01/29 02:45:54;;;;;;;13.80;10.20;;;2.50;99.90;;;;;;5069040;28;20439;-65
2022/01/29 02:48:22;;;;;;;14.07;9.53;;;2.40;99.90;;;;;;5068730;28;20447;-65
2022/01/29 02:50:50;;;;;;;14.67;9.97;;;2.40;99.90;;;;;;5068422;28;20435;-66
2022/01/29 02:53:17;;;;;;;13.97;10.30;;;2.40;99.90;;;;;;5068447;28;20471;-66
2022/01/29 02:55:44;;;;;;;14.60;10.77;;;2.40;99.90;;;;;;5068715;28;20432;-65
2022/01/29 02:58:12;;;;;;;20.40;11.23;;;2.40;99.90;;;;;;5068593;28;20450;-65
2022/01/29 03:00:40;;;;;;;13.20;10.20;;;2.40;99.90;;;;;;5068177;28;20439;-65
2022/01/29 03:03:06;;;;;;;14.80;10.50;;;2.40;99.90;;;;;;5068227;28;20823;-65
2022/01/29 03:05:34;;;;;;;15.10;10.10;;;2.30;99.90;;;;;;5068474;28;20457;-64
2022/01/29 03:08:00;;;;;;;13.80;9.90;;;2.30;99.90;;;;;;5068711;28;20478;-64
2022/01/29 03:10:28;;;;;;;14.57;9.70;;;2.20;99.90;;;;;;5068174;28;20446;-65
2022/01/29 03:12:55;;;;;;;15.83;9.63;;;2.20;99.90;;;;;;5068435;28;20467;-65
2022/01/29 03:15:23;;;;;;;16.37;9.40;;;2.30;99.90;;;;;;5068296;28;20526;-65
2022/01/29 03:17:50;;;;;;;13.87;11.30;;;2.20;99.90;;;;;;5068349;28;20435;-65
2022/01/29 03:20:17;;;;;;;13.30;9.57;;;2.40;99.90;;;;;;5068072;28;20431;-65
2022/01/29 03:22:44;;;;;;;14.00;11.03;;;2.40;99.90;;;;;;5071666;28;20477;-64
2022/01/29 03:25:10;;;;;;;14.07;9.40;;;2.40;99.90;;;;;;5072266;28;21127;-65
2022/01/29 03:27:37;;;;;;;16.67;11.57;;;2.40;99.90;;;;;;5071930;28;20449;-65
2022/01/29 03:30:07;;;;;;;15.40;11.00;;;2.40;99.90;;;;;;5071712;28;20438;-65
2022/01/29 03:32:35;;;;;;;15.10;11.00;;;2.50;99.90;;;;;;5071756;28;20495;-65
2022/01/29 03:35:02;;;;;;;15.20;10.50;;;2.50;99.90;;;;;;5072144;28;20435;-65
2022/01/29 03:37:29;;;;;;;14.87;11.70;;;2.40;99.90;;;;;;5071572;28;20443;-65
2022/01/29 03:39:59;;;;;;;17.80;11.90;;;2.40;99.90;;;;;;5071505;28;20451;-65
2022/01/29 03:42:28;;;;;;;13.53;10.33;;;2.40;99.90;;;;;;5071377;28;20521;-64
2022/01/29 03:44:55;;;;;;;17.00;12.50;;;2.40;99.90;;;;;;5071416;28;20439;-65
2022/01/29 03:47:22;;;;;;;18.97;12.00;;;2.50;99.90;;;;;;5071530;28;20538;-65
2022/01/29 03:49:50;;;;;;;13.23;10.80;;;2.50;99.90;;;;;;5071038;28;20934;-65
2022/01/29 03:52:17;;;;;;;16.37;11.87;;;2.50;99.90;;;;;;5071470;28;20813;-65
2022/01/29 03:54:44;;;;;;;16.00;11.60;;;2.40;99.90;;;;;;5071456;28;20953;-65
2022/01/29 03:57:11;;;;;;;17.30;11.73;;;2.50;99.90;;;;;;5071649;28;20447;-65
2022/01/29 03:59:38;;;;;;;15.83;10.60;;;2.50;99.90;;;;;;5071105;28;20569;-65
2022/01/29 04:02:04;;;;;;;20.83;12.47;;;2.60;99.90;;;;;;5071760;28;20439;-65
2022/01/29 04:04:31;;;;;;;15.83;11.80;;;2.60;99.90;;;;;;5071379;28;20480;-65
2022/01/29 04:07:05;;;;;;;15.07;11.47;;;2.50;99.90;;;;;;5071417;28;20968;-65
2022/01/29 04:09:32;;;;;;;15.63;11.40;;;2.50;99.90;;;;;;5071339;28;20440;-65
2022/01/29 04:11:59;;;;;;;15.67;11.17;;;2.60;99.90;;;;;;5071099;28;20471;-65
2022/01/29 04:14:32;;;;;;;15.50;10.80;;;2.60;99.90;;;;;;5071493;28;20538;-64
2022/01/29 04:16:59;;;;;;;16.03;12.13;;;2.50;99.90;;;;;;5070895;28;20917;-65
2022/01/29 04:19:26;;;;;;;17.27;12.03;;;2.50;99.90;;;;;;5070978;28;20897;-64
2022/01/29 04:21:53;;;;;;;19.77;12.00;;;2.50;99.90;;;;;;5070865;28;20440;-65
2022/01/29 04:24:21;;;;;;;18.50;12.60;;;2.50;99.90;;;;;;5070946;28;20491;-65
2022/01/29 04:26:47;;;;;;;16.40;11.20;;;2.50;99.90;;;;;;5070932;28;20442;-66
2022/01/29 04:29:15;;;;;;;14.73;11.50;;;2.50;99.90;;;;;;5070925;28;20862;-64
2022/01/29 04:31:47;;;;;;;16.70;11.77;;;2.50;99.90;;;;;;5070961;28;20505;-65
2022/01/29 04:34:14;;;;;;;16.17;12.50;;;2.50;99.90;;;;;;5070199;28;20447;-64
2022/01/29 04:36:41;;;;;;;18.53;12.53;;;2.40;99.90;;;;;;5071002;28;20440;-65
2022/01/29 04:39:08;;;;;;;19.77;12.20;;;2.40;99.90;;;;;;5070508;28;20443;-65
2022/01/29 04:41:36;;;;;;;15.73;11.93;;;2.40;99.90;;;;;;5070680;28;20440;-66
2022/01/29 04:44:03;;;;;;;18.63;12.80;;;2.40;99.90;;;;;;5070749;28;20491;-65
2022/01/29 04:46:29;;;;;;;15.97;12.90;;;2.30;99.90;;;;;;5070891;28;20443;-65
2022/01/29 04:48:57;;;;;;;17.43;12.50;;;2.30;99.90;;;;;;5070777;28;20452;-65
2022/01/29 04:51:23;;;;;;;17.53;12.30;;;2.40;99.90;;;;;;5070544;28;20933;-65
2022/01/29 04:53:50;;;;;;;15.47;12.20;;;2.40;99.90;;;;;;5070790;28;20797;-65
2022/01/29 04:56:17;;;;;;;17.30;12.60;;;2.40;99.90;;;;;;5070649;28;20430;-65
2022/01/29 04:58:45;;;;;;;15.13;11.47;;;2.40;99.90;;;;;;5070745;28;20531;-65
2022/01/29 05:01:12;;;;;;;16.80;12.60;;;2.40;99.90;;;;;;5070168;28;20820;-64
2022/01/29 05:03:39;;;;;;;19.90;12.20;;;2.50;99.90;;;;;;5070172;28;20485;-65
2022/01/29 05:06:09;;;;;;;20.80;11.70;;;2.50;99.90;;;;;;5069927;28;20546;-65
2022/01/29 05:08:36;;;;;;;16.43;11.50;;;2.50;99.90;;;;;;5070470;28;20435;-65
2022/01/29 05:11:04;;;;;;;14.80;11.27;;;2.50;99.90;;;;;;5069933;28;20500;-65
2022/01/29 05:13:32;;;;;;;14.60;11.80;;;2.60;99.90;;;;;;5070282;28;21098;-65
2022/01/29 05:16:24;;;;;;;16.60;11.30;;;2.60;99.90;;;;;;5070263;28;20532;-64
2022/01/29 05:27:06;;;;;;;22.13;15.77;;;2.60;99.90;;;;;;5068871;28;20840;-65
2022/01/29 05:29:32;;;;;;;18.00;12.80;;;2.70;99.90;;;;;;5069363;28;21203;-65
2022/01/29 05:32:02;;;;;;;22.53;15.40;;;2.80;99.90;;;;;;5069612;28;20925;-65
2022/01/29 05:34:28;;;;;;;22.37;15.73;;;2.80;99.90;;;;;;5069667;28;20810;-65
2022/01/29 05:36:55;;;;;;;21.90;16.30;;;2.90;99.90;;;;;;5069585;28;20450;-64
2022/01/29 05:39:24;;;;;;;22.47;17.30;;;2.90;99.90;;;;;;5069164;28;20447;-65
2022/01/29 05:41:53;;;;;;;23.87;16.43;;;2.90;99.90;;;;;;5069883;28;20463;-65
2022/01/29 05:44:20;;;;;;;22.90;16.43;;;2.90;99.90;;;;;;5069106;28;20479;-65
2022/01/29 05:46:47;;;;;;;22.40;16.70;;;2.90;99.90;;;;;;5069201;28;20449;-64
2022/01/29 05:49:15;;;;;;;25.60;17.90;;;2.80;99.90;;;;;;5069163;28;20803;-65
2022/01/29 05:51:42;;;;;;;24.80;16.50;;;2.90;99.90;;;;;;5069224;28;20443;-65
2022/01/29 05:54:09;;;;;;;24.77;17.40;;;2.90;99.90;;;;;;5069200;28;20454;-65
2022/01/29 05:56:36;;;;;;;28.53;16.47;;;2.90;99.90;;;;;;5069549;28;20813;-65
2022/01/29 05:59:03;;;;;;;24.03;17.17;;;3.00;99.90;;;;;;5069564;28;20570;-65
2022/01/29 06:01:29;;;;;;;21.90;17.30;;;3.00;99.90;;;;;;5069085;28;20668;-65
2022/01/29 06:03:56;;;;;;;24.17;17.07;;;2.90;99.90;;;;;;5069121;28;20490;-65
2022/01/29 06:06:25;;;;;;;25.10;17.60;;;2.90;99.90;;;;;;5068846;28;20512;-64
2022/01/29 06:08:52;;;;;;;29.17;16.47;;;2.90;99.90;;;;;;5069394;28;20450;-65
2022/01/29 06:11:18;;;;;;;25.70;17.23;;;2.90;99.90;;;;;;5068870;28;20884;-64
2022/01/29 06:13:45;;;;;;;23.43;17.33;;;2.90;99.90;;;;;;5069141;28;20479;-65
2022/01/29 06:16:12;;;;;;;24.83;17.60;;;2.90;99.90;;;;;;5068831;28;20445;-66
2022/01/29 06:18:40;;;;;;;23.17;17.63;;;2.90;99.90;;;;;;5069017;28;20465;-65
2022/01/29 06:21:09;;;;;;;26.33;15.97;;;2.90;99.90;;;;;;5068548;28;20535;-65
2022/01/29 06:23:38;;;;;;;23.90;15.93;;;2.90;99.90;;;;;;5068564;28;20486;-65
2022/01/29 06:26:10;;;;;;;22.57;14.37;;;2.90;99.90;;;;;;5069114;28;20527;-64
2022/01/29 06:28:37;;;;;;;21.40;16.20;;;2.90;99.90;;;;;;5068613;28;20936;-64
2022/01/29 06:31:05;;;;;;;23.17;16.27;;;2.90;99.90;;;;;;5068526;28;20459;-65
2022/01/29 06:33:32;;;;;;;23.30;16.37;;;2.90;99.90;;;;;;5068486;28;20538;-64
2022/01/29 06:35:59;;;;;;;24.40;16.07;;;2.90;99.90;;;;;;5069117;28;20530;-65
2022/01/29 06:38:26;;;;;;;24.00;15.97;;;2.90;99.90;;;;;;5068682;28;20447;-64
2022/01/29 06:40:55;;;;;;;24.50;17.13;;;2.90;99.90;;;;;;5068464;28;20450;-64
2022/01/29 06:43:22;;;;;;;21.07;16.27;;;2.90;99.90;;;;;;5068784;28;20451;-64
2022/01/29 06:45:48;;;;;;;23.93;17.17;;;2.90;99.90;;;;;;5068586;28;20440;-64
2022/01/29 06:48:16;;;;;;;25.10;16.97;;;3.00;99.90;;;;;;5068450;28;20959;-65
2022/01/29 06:50:43;;;;;;;21.87;15.60;;;3.00;99.90;;;;;;5068153;28;20525;-65
2022/01/29 06:53:10;;;;;;;27.07;16.53;;;3.00;99.90;;;;;;5068566;28;20471;-65
2022/01/29 06:55:37;;;;;;;21.03;16.13;;;2.90;99.90;;;;;;5068646;28;20526;-64
2022/01/29 06:58:05;;;;;;;23.40;17.33;;;3.00;99.90;;;;;;5072663;28;20436;-65
2022/01/29 07:00:32;;;;;;;23.47;16.17;;;3.00;99.90;;;;;;5072184;28;20522;-64
2022/01/29 07:02:59;;;;;;;20.70;15.23;;;3.00;99.90;;;;;;5072193;28;20462;-65
2022/01/29 07:05:26;;;;;;;23.60;15.20;;;3.00;99.90;;;;;;5072350;28;20487;-65
2022/01/29 07:07:53;;;;;;;24.83;16.47;;;3.10;99.90;;;;;;5072247;28;20446;-64
2022/01/29 07:10:19;;;;;;;26.10;17.27;;;3.10;99.90;;;;;;5071899;28;20873;-65
2022/01/29 07:12:46;;;;;;;22.03;16.03;;;3.20;99.90;;;;;;5071921;28;20895;-65
2022/01/29 07:15:15;;;;;;;21.63;15.53;;;3.20;99.90;;;;;;5072001;28;20447;-65
2022/01/29 07:17:41;;;;;;;19.20;14.70;;;3.30;99.90;;;;;;5072077;28;20445;-65
2022/01/29 07:20:09;;;;;;;23.17;14.60;;;3.30;99.90;;;;;;5071732;28;20816;-64
2022/01/29 07:22:38;;;;;;;20.70;15.90;;;3.30;99.90;;;;;;5072184;28;20467;-65
2022/01/29 07:25:05;;;;;;;21.90;16.67;;;3.40;99.90;;;;;;5071328;28;20467;-65
2022/01/29 07:27:32;;;;;;;20.87;16.07;;;3.40;99.90;;;;;;5071030;28;20435;-64
2022/01/29 07:29:59;;;;;;;23.87;17.23;;;3.40;99.90;;;;;;5063732;28;20449;-65
2022/01/29 07:32:27;;;;;;;27.23;15.93;;;3.50;99.90;;;;;;5071936;28;20996;-64
2022/01/29 07:34:54;;;;;;;20.50;15.20;;;3.50;99.90;;;;;;5071950;28;21015;-64
2022/01/29 07:37:21;;;;;;;17.70;13.47;;;3.60;99.90;;;;;;5071964;28;20963;-65
2022/01/29 07:39:48;;;;;;;20.30;14.77;;;3.60;99.90;;;;;;5071763;28;20452;-65
2022/01/29 07:42:14;;;;;;;21.20;15.07;;;3.60;99.90;;;;;;5071532;28;20487;-64
2022/01/29 07:44:41;;;;;;;20.70;15.73;;;3.60;99.90;;;;;;5072122;28;20479;-64
2022/01/29 07:47:08;;;;;;;20.23;14.50;;;3.70;99.90;;;;;;5071595;28;20436;-64
2022/01/29 07:49:37;;;;;;;19.93;15.30;;;3.70;99.90;;;;;;5071522;28;20522;-65
2022/01/29 07:52:04;;;;;;;18.87;14.73;;;3.80;99.90;;;;;;5071609;28;20816;-67
2022/01/29 07:54:31;;;;;;;15.87;13.30;;;3.80;99.90;;;;;;5072032;28;20444;-63
2022/01/29 07:56:58;;;;;;;15.47;13.80;;;3.80;99.90;;;;;;5071676;28;20550;-64
2022/01/29 07:59:25;;;;;;;16.30;13.40;;;3.80;99.90;;;;;;5071528;28;20435;-63
2022/01/29 08:01:51;;;;;;;16.20;12.10;;;3.90;99.90;;;;;;5071621;28;20473;-63
2022/01/29 08:04:19;;;;;;;18.50;13.63;;;3.90;99.90;;;;;;5071511;28;20475;-62
2022/01/29 08:06:48;;;;;;;20.23;13.57;;;4.00;99.90;;;;;;5071146;28;20458;-64
2022/01/29 08:09:14;;;;;;;16.77;13.10;;;4.00;99.90;;;;;;5069829;28;20534;-64
2022/01/29 08:11:41;;;;;;;15.53;11.13;;;4.00;99.90;;;;;;5071072;28;20522;-64
2022/01/29 08:14:09;;;;;;;14.73;11.40;;;4.00;99.90;;;;;;5070587;28;20478;-64
2022/01/29 08:16:36;;;;;;;15.33;11.33;;;4.10;99.90;;;;;;5071017;28;20449;-64
2022/01/29 08:19:03;;;;;;;13.43;8.97;;;4.10;99.90;;;;;;5070628;28;20458;-64
2022/01/29 08:21:30;;;;;;;13.13;9.70;;;4.20;99.90;;;;;;5070711;28;20436;-64
2022/01/29 08:23:58;;;;;;;10.63;8.10;;;4.30;99.90;;;;;;5069284;28;20464;-65
2022/01/29 08:26:25;;;;;;;11.37;8.07;;;4.30;99.90;;;;;;5070456;28;20479;-65
2022/01/29 08:28:51;;;;;;;12.07;7.87;;;4.40;99.90;;;;;;5070206;28;20439;-64
2022/01/29 08:31:18;;;;;;;16.23;7.83;;;4.50;99.90;;;;;;5069783;28;20657;-64
2022/01/29 08:33:45;;;;;;;6.70;6.00;;;4.60;99.90;;;;;;5070634;28;20459;-64
2022/01/29 08:36:12;;;;;;;9.97;6.40;;;4.70;99.90;;;;;;5070600;28;20471;-65
2022/01/29 08:38:39;;;;;;;7.87;5.53;;;4.80;99.90;;;;;;5070903;28;20439;-64
2022/01/29 08:41:07;;;;;;;9.50;7.23;;;5.00;99.90;;;;;;5070510;28;20527;-64
2022/01/29 08:43:34;;;;;;;6.70;4.87;;;5.20;99.90;;;;;;5070509;28;20456;-64
2022/01/29 08:46:02;;;;;;;6.97;5.07;;;5.40;99.90;;;;;;5070505;28;20506;-64
2022/01/29 08:48:28;;;;;;;5.27;4.47;;;5.50;99.90;;;;;;5070233;28;20448;-65
2022/01/29 08:50:55;;;;;;;4.50;3.43;;;5.60;99.90;;;;;;5070004;28;20441;-64
2022/01/29 08:53:22;;;;;;;6.20;3.40;;;5.60;99.90;;;;;;5069997;28;20958;-64
2022/01/29 08:55:49;;;;;;;5.40;3.60;;;5.50;99.90;;;;;;5070170;28;20509;-65
2022/01/29 08:58:17;;;;;;;4.43;3.63;;;5.50;99.90;;;;;;5070136;28;20896;-64
2022/01/29 09:00:46;;;;;;;5.00;3.20;;;5.40;99.90;;;;;;5069705;28;21156;-64
2022/01/29 09:03:15;;;;;;;4.57;3.67;;;5.40;99.90;;;;;;5069864;28;20475;-64
2022/01/29 09:05:43;;;;;;;4.03;3.10;;;5.50;99.90;;;;;;5069529;28;20491;-63
2022/01/29 09:08:10;;;;;;;4.57;3.77;;;5.60;99.90;;;;;;5065591;28;20441;-64
2022/01/29 09:10:37;;;;;;;5.97;3.63;;;5.70;99.90;;;;;;5069780;28;20446;-64
2022/01/29 09:13:04;;;;;;;5.60;3.60;;;5.70;99.90;;;;;;5069846;28;20451;-64
2022/01/29 09:15:32;;;;;;;7.40;2.97;;;5.80;99.90;;;;;;5068806;28;20975;-64
2022/01/29 09:17:59;;;;;;;5.10;3.27;;;5.90;99.90;;;;;;5066378;28;20456;-64
2022/01/29 09:20:27;;;;;;;5.33;3.23;;;6.00;99.90;;;;;;5068574;28;20440;-64
2022/01/29 09:22:54;;;;;;;3.90;3.20;;;6.20;99.90;;;;;;5064602;28;20474;-64
2022/01/29 09:25:21;;;;;;;5.30;3.67;;;6.30;99.90;;;;;;5062603;28;21190;-64
2022/01/29 09:27:48;;;;;;;4.67;3.00;;;6.30;99.90;;;;;;5062348;28;20463;-64
2022/01/29 09:30:15;;;;;;;4.40;3.23;;;6.40;99.90;;;;;;5064623;28;20539;-64
2022/01/29 09:32:43;;;;;;;4.30;3.20;;;6.50;99.90;;;;;;5065231;28;20829;-64
2022/01/29 09:35:10;;;;;;;5.10;3.63;;;6.70;99.90;;;;;;5065947;28;20454;-65
2022/01/29 09:37:37;;;;;;;4.60;3.20;;;6.70;99.90;;;;;;5065480;28;20436;-64
2022/01/29 09:40:05;;;;;;;6.53;4.10;;;6.70;99.90;;;;;;5065559;28;20550;-63
2022/01/29 09:42:33;;;;;;;5.47;3.80;;;6.80;99.90;;;;;;5065305;28;20506;-64
2022/01/29 09:45:00;;;;;;;4.90;3.73;;;6.90;99.90;;;;;;5064161;28;20497;-64
2022/01/29 09:47:29;;;;;;;5.43;3.37;;;7.10;99.90;;;;;;5061717;28;20455;-66
2022/01/29 09:49:58;;;;;;;5.43;3.80;;;7.10;99.90;;;;;;5064173;28;20431;-64
2022/01/29 09:52:25;;;;;;;4.53;3.70;;;7.30;99.90;;;;;;5064525;28;20516;-65
2022/01/29 09:54:52;;;;;;;5.20;3.67;;;7.40;99.90;;;;;;5064640;28;21009;-64
2022/01/29 09:57:18;;;;;;;4.50;3.40;;;7.50;99.90;;;;;;5065181;28;20436;-64
2022/01/29 09:59:46;;;;;;;4.73;3.90;;;7.60;99.90;;;;;;5062432;28;20442;-64
2022/01/29 10:02:18;;;;;;;4.80;3.83;;;7.60;99.90;;;;;;5065438;28;20470;-64
2022/01/29 10:04:49;;;;;;;4.63;3.80;;;7.70;99.90;;;;;;5064672;28;21010;-64
2022/01/29 10:07:19;;;;;;;6.30;4.60;;;8.00;99.90;;;;;;5064288;28;20446;-64
2022/01/29 10:09:47;;;;;;;4.40;2.90;;;8.10;99.90;;;;;;5064713;28;21036;-65
2022/01/29 10:12:22;;;;;;;5.00;3.40;;;8.20;99.90;;;;;;5064868;28;20491;-64
2022/01/29 10:14:51;;;;;;;6.23;3.70;;;8.20;99.90;;;;;;5064966;28;20435;-65
2022/01/29 10:17:43;;;;;;;5.17;3.17;;;8.00;99.90;;;;;;5064516;28;20938;-63
2022/01/29 10:20:13;;;;;;;4.57;3.33;;;7.80;99.90;;;;;;5062996;28;20444;-64
2022/01/29 10:22:41;;;;;;;9.07;3.17;;;7.70;99.90;;;;;;5063654;28;20559;-62
2022/01/29 10:25:12;;;;;;;5.67;3.00;;;7.60;99.90;;;;;;5063424;28;20487;-62
2022/01/29 10:27:40;;;;;;;4.53;3.00;;;7.60;99.90;;;;;;5062231;28;20884;-63
2022/01/29 10:30:11;;;;;;;4.10;3.00;;;7.70;99.90;;;;;;5063842;28;20447;-62
2022/01/29 10:32:38;;;;;;;5.27;3.53;;;7.80;99.90;;;;;;5062698;28;20498;-63
2022/01/29 10:35:06;;;;;;;5.47;3.20;;;7.80;99.90;;;;;;5064229;28;20538;-63
2022/01/29 10:37:32;;;;;;;3.90;2.90;;;7.90;99.90;;;;;;5063991;28;20455;-63
2022/01/29 10:40:15;;;;;;;4.60;3.03;;;8.00;99.90;;;;;;5063687;28;20452;-63
2022/01/29 10:42:42;;;;;;;4.63;3.27;;;7.80;99.90;;;;;;5063921;28;20463;-63
2022/01/29 10:45:10;;;;;;;3.93;3.00;;;7.80;99.90;;;;;;5063655;28;20474;-63
2022/01/29 10:47:55;;;;;;;4.87;2.90;;;7.90;99.90;;;;;;5063653;28;20558;-64
2022/01/29 10:50:22;;;;;;;4.37;2.90;;;7.90;99.90;;;;;;5063529;28;20447;-64
2022/01/29 10:52:50;;;;;;;5.83;2.80;;;7.90;99.90;;;;;;5063858;28;20464;-63
2022/01/29 10:55:18;;;;;;;4.30;3.07;;;7.90;99.90;;;;;;5063726;28;20452;-64
2022/01/29 10:57:46;;;;;;;4.97;3.37;;;8.00;99.90;;;;;;5062974;28;20455;-64
2022/01/29 11:00:18;;;;;;;7.00;3.03;;;8.00;99.90;;;;;;5062947;28;20473;-64
2022/01/29 11:02:46;;;;;;;4.30;3.20;;;8.10;99.90;;;;;;5063896;28;20958;-63
2022/01/29 11:05:13;;;;;;;4.73;3.17;;;8.20;99.90;;;;;;5063668;28;20487;-64
2022/01/29 11:07:41;;;;;;;4.60;3.23;;;8.20;99.90;;;;;;5062288;28;20493;-63
2022/01/29 11:10:09;;;;;;;3.83;3.17;;;8.10;99.90;;;;;;5062376;28;20558;-63
2022/01/29 11:12:43;;;;;;;4.53;2.90;;;8.00;99.90;;;;;;5060923;28;20483;-63
2022/01/29 11:15:10;;;;;;;4.20;2.70;;;8.00;99.90;;;;;;5063862;28;20473;-64
2022/01/29 11:17:37;;;;;;;5.13;3.30;;;8.00;99.90;;;;;;5060795;28;20454;-64
2022/01/29 11:20:05;;;;;;;4.87;2.97;;;8.00;99.90;;;;;;5063770;28;20439;-64
2022/01/29 11:22:35;;;;;;;4.47;2.30;;;8.00;99.90;;;;;;5063592;28;20459;-64
2022/01/29 11:25:05;;;;;;;4.77;2.80;;;8.00;99.90;;;;;;5064171;28;20574;-64
2022/01/29 11:27:33;;;;;;;5.50;3.67;;;8.00;99.90;;;;;;5063579;28;20566;-64
2022/01/29 11:30:05;;;;;;;5.97;3.13;;;7.90;99.90;;;;;;5063572;28;21824;-63
2022/01/29 11:32:39;;;;;;;5.53;3.13;;;7.90;99.90;;;;;;5064100;28;20463;-64
2022/01/29 11:35:17;;;;;;;4.20;2.70;;;7.90;99.90;;;;;;5063683;28;20443;-63
2022/01/29 11:37:54;;;;;;;4.37;2.47;;;8.00;99.90;;;;;;5062173;28;21160;-66
2022/01/29 11:40:30;;;;;;;4.43;2.80;;;8.00;99.90;;;;;;5063372;28;20455;-64
2022/01/29 11:43:05;;;;;;;3.63;2.77;;;8.00;99.90;;;;;;5063607;28;20542;-64
2022/01/29 11:45:39;;;;;;;4.57;2.50;;;8.00;99.90;;;;;;5066263;28;20486;-63
2022/01/29 11:48:07;;;;;;;3.60;2.23;;;8.00;99.90;;;;;;5065717;28;20450;-63
2022/01/29 11:50:45;;;;;;;4.47;2.73;;;8.00;99.90;;;;;;5067519;28;20435;-63
2022/01/29 11:53:13;;;;;;;3.80;2.47;;;8.00;99.90;;;;;;5067093;28;20466;-64
2022/01/29 11:55:41;;;;;;;4.07;2.97;;;8.00;99.90;;;;;;5067456;28;20442;-63
2022/01/29 11:58:26;;;;;;;3.87;2.73;;;8.00;99.90;;;;;;5065587;28;20451;-63
2022/01/29 12:00:55;;;;;;;5.10;3.13;;;8.10;99.90;;;;;;5063813;28;20447;-64
2022/01/29 12:03:53;;;;;;;3.90;2.33;;;8.10;99.90;;;;;;5064597;28;20550;-63
2022/01/29 12:06:24;;;;;;;3.37;2.27;;;8.00;99.90;;;;;;5066698;28;20487;-63
2022/01/29 12:09:33;;;;;;;3.30;2.50;;;8.10;99.90;;;;;;5067042;28;20559;-63
2022/01/29 12:12:18;;;;;;;3.60;2.20;;;8.10;99.90;;;;;;5066949;28;20454;-63
2022/01/29 12:14:46;;;;;;;7.53;2.63;;;8.20;99.90;;;;;;5066444;28;20448;-64
2022/01/29 12:17:34;;;;;;;3.17;2.47;;;8.20;99.90;;;;;;5067243;28;20436;-64
2022/01/29 12:20:02;;;;;;;3.40;2.63;;;8.30;99.90;;;;;;5067010;28;20448;-64
2022/01/29 12:22:35;;;;;;;4.20;3.10;;;8.30;99.90;;;;;;5067143;28;20471;-64
2022/01/29 12:25:03;;;;;;;3.23;2.20;;;8.30;99.90;;;;;;5067024;28;20451;-65
2022/01/29 12:27:46;;;;;;;3.77;2.10;;;8.30;99.90;;;;;;5066751;28;20458;-64
2022/01/29 12:30:14;;;;;;;4.43;2.50;;;8.30;99.90;;;;;;5066321;28;20436;-64
2022/01/29 12:32:58;;;;;;;2.40;1.70;;;8.40;99.90;;;;;;5064911;28;20467;-63
2022/01/29 12:35:37;;;;;;;4.47;2.30;;;8.50;99.90;;;;;;5059155;28;20447;-64
2022/01/29 12:38:05;;;;;;;3.13;1.90;;;8.50;99.90;;;;;;5066084;28;21105;-64
2022/01/29 12:40:38;;;;;;;3.60;1.70;;;8.60;99.90;;;;;;5062863;28;20452;-64
2022/01/29 12:43:11;;;;;;;4.30;1.80;;;8.70;99.90;;;;;;5065436;28;20467;-64
2022/01/29 12:45:39;;;;;;;2.77;1.60;;;8.90;99.90;;;;;;5065535;28;20502;-64
2022/01/29 12:48:12;;;;;;;2.50;1.77;;;9.20;99.90;;;;;;5067360;28;20467;-64
2022/01/29 12:50:41;;;;;;;2.60;1.83;;;9.50;99.90;;;;;;5067905;28;20456;-65
2022/01/29 12:53:09;;;;;;;2.60;1.80;;;9.60;99.90;;;;;;5069520;28;20844;-66
2022/01/29 12:55:37;;;;;;;5.43;1.83;;;9.80;99.90;;;;;;5068325;28;20439;-65
2022/01/29 12:58:04;;;;;;;6.90;1.83;;;9.80;99.90;;;;;;5066621;28;20446;-64
2022/01/29 13:00:31;;;;;;;4.90;1.57;;;9.80;99.90;;;;;;5068936;28;20538;-64